createdAt,value
2018-06-07T00:00:52.285Z,6.40
2018-06-07T00:03:20.617Z,6.97
2018-06-07T00:05:48.929Z,6.70
2018-06-07T00:08:17.294Z,6.80
2018-06-07T00:10:45.601Z,6.60
2018-06-07T00:13:13.937Z,7.43
2018-06-07T00:15:42.232Z,6.70
2018-06-07T00:18:10.557Z,7.00
2018-06-07T00:20:38.958Z,7.17
2018-06-07T00:23:07.290Z,6.87
2018-06-07T00:25:35.605Z,6.00
2018-06-07T00:28:03.936Z,6.80
2018-06-07T00:30:32.253Z,7.17
2018-06-07T00:33:00.585Z,6.00
2018-06-07T00:35:34.262Z,7.10
2018-06-07T00:38:02.604Z,6.97
2018-06-07T00:40:30.971Z,6.80
2018-06-07T00:42:59.287Z,6.90
2018-06-07T00:45:27.702Z,7.37
2018-06-07T00:47:56.038Z,6.17
2018-06-07T00:50:24.349Z,7.20
2018-06-07T00:52:52.672Z,6.17
2018-06-07T00:55:20.977Z,6.33
2018-06-07T00:57:49.297Z,6.80
2018-06-07T01:00:17.643Z,7.03
2018-06-07T01:02:45.952Z,5.67
2018-06-07T01:05:14.287Z,5.90
2018-06-07T01:07:42.625Z,6.70
2018-06-07T01:10:10.953Z,5.37
2018-06-07T01:12:39.014Z,5.50
2018-06-07T01:15:07.336Z,6.00
2018-06-07T01:17:35.644Z,6.10
2018-06-07T01:20:04.039Z,4.77
2018-06-07T01:22:32.349Z,6.23
2018-06-07T01:25:00.687Z,6.03
2018-06-07T01:27:34.380Z,6.10
2018-06-07T01:31:18.537Z,5.77
2018-06-07T01:33:48.770Z,6.30
2018-06-07T01:36:18.008Z,5.93
2018-06-07T01:38:57.796Z,5.83
2018-06-07T01:41:26.105Z,6.20
2018-06-07T01:43:54.445Z,7.00
2018-06-07T01:46:22.760Z,5.13
2018-06-07T01:48:51.081Z,5.53
2018-06-07T01:51:19.437Z,5.37
2018-06-07T01:53:47.745Z,6.00
2018-06-07T01:56:16.457Z,6.53
2018-06-07T01:58:44.780Z,5.10
2018-06-07T02:01:13.114Z,5.57
2018-06-07T02:03:41.421Z,5.60
2018-06-07T02:06:09.745Z,5.87
2018-06-07T02:08:38.097Z,6.67
2018-06-07T02:11:06.434Z,6.50
2018-06-07T02:13:34.749Z,6.23
2018-06-07T02:16:03.093Z,6.33
2018-06-07T02:18:31.398Z,5.10
2018-06-07T02:20:59.729Z,5.63
2018-06-07T02:23:28.061Z,5.17
2018-06-07T02:25:56.493Z,5.80
2018-06-07T02:28:24.781Z,6.20
2018-06-07T02:30:53.113Z,5.03
2018-06-07T02:33:21.419Z,5.67
2018-06-07T02:35:49.754Z,5.67
2018-06-07T02:38:18.058Z,5.30
2018-06-07T02:40:46.389Z,4.70
2018-06-07T02:43:14.697Z,5.50
2018-06-07T02:45:43.028Z,6.00
2018-06-07T02:48:11.347Z,6.00
2018-06-07T02:50:39.676Z,5.87
2018-06-07T02:53:07.985Z,5.60
2018-06-07T02:55:36.340Z,5.67
2018-06-07T02:58:04.673Z,6.07
2018-06-07T03:00:32.989Z,5.97
2018-06-07T03:03:01.322Z,5.53
2018-06-07T03:05:29.638Z,5.33
2018-06-07T03:07:57.997Z,5.10
2018-06-07T03:10:26.314Z,6.40
2018-06-07T03:12:54.632Z,6.40
2018-06-07T03:15:22.964Z,5.57
2018-06-07T03:17:51.293Z,5.30
2018-06-07T03:20:19.615Z,5.60
2018-06-07T03:22:47.944Z,6.20
2018-06-07T03:25:16.269Z,6.90
2018-06-07T03:27:44.593Z,6.03
2018-06-07T03:30:12.909Z,5.80
2018-06-07T03:32:41.237Z,6.20
2018-06-07T03:35:09.553Z,6.63
2018-06-07T03:37:37.872Z,6.00
2018-06-07T03:40:06.286Z,5.57
2018-06-07T03:42:34.613Z,6.40
2018-06-07T03:45:02.933Z,6.00
2018-06-07T03:47:31.257Z,5.50
2018-06-07T03:49:59.560Z,6.27
2018-06-07T03:52:27.889Z,5.53
2018-06-07T03:54:56.240Z,5.93
2018-06-07T03:57:24.569Z,5.90
2018-06-07T03:59:52.874Z,6.20
2018-06-07T04:02:21.209Z,6.20
2018-06-07T04:04:49.555Z,6.23
2018-06-07T04:07:17.912Z,6.10
2018-06-07T04:09:46.224Z,5.73
2018-06-07T04:12:14.549Z,6.20
2018-06-07T04:14:42.871Z,7.50
2018-06-07T04:17:11.196Z,6.80
2018-06-07T04:19:39.597Z,5.40
2018-06-07T04:22:07.936Z,5.33
2018-06-07T04:24:36.255Z,6.77
2018-06-07T04:27:04.649Z,5.67
2018-06-07T04:29:33.077Z,7.03
2018-06-07T04:32:01.411Z,6.43
2018-06-07T04:34:29.745Z,6.47
2018-06-07T04:36:58.064Z,6.10
2018-06-07T04:39:26.396Z,6.67
2018-06-07T04:41:54.697Z,6.30
2018-06-07T04:44:23.028Z,5.67
2018-06-07T04:46:51.351Z,5.87
2018-06-07T04:49:19.672Z,6.00
2018-06-07T04:51:47.976Z,6.40
2018-06-07T04:54:16.305Z,6.50
2018-06-07T04:56:44.621Z,5.70
2018-06-07T04:59:12.954Z,6.67
2018-06-07T05:01:41.274Z,6.63
2018-06-07T05:04:09.348Z,6.63
2018-06-07T05:06:37.709Z,5.70
2018-06-07T05:09:08.205Z,6.03
2018-06-07T05:11:36.546Z,5.70
2018-06-07T05:14:04.870Z,5.73
2018-06-07T05:16:33.185Z,5.90
2018-06-07T05:19:01.509Z,6.03
2018-06-07T05:21:29.821Z,6.07
2018-06-07T05:23:58.152Z,5.67
2018-06-07T05:26:26.231Z,6.33
2018-06-07T05:28:54.559Z,6.10
2018-06-07T05:31:22.862Z,5.30
2018-06-07T05:33:51.223Z,5.17
2018-06-07T05:36:19.538Z,5.87
2018-06-07T05:38:47.925Z,6.20
2018-06-07T05:41:16.364Z,5.33
2018-06-07T05:43:44.709Z,5.40
2018-06-07T05:46:13.037Z,5.20
2018-06-07T05:48:41.344Z,6.40
2018-06-07T05:51:09.682Z,13.37
2018-06-07T05:53:37.985Z,5.27
2018-06-07T05:56:06.402Z,7.10
2018-06-07T05:58:34.741Z,7.83
2018-06-07T06:01:03.095Z,6.33
2018-06-07T06:03:31.442Z,5.97
2018-06-07T06:05:59.784Z,6.27
2018-06-07T06:08:28.108Z,5.63
2018-06-07T06:10:56.434Z,6.47
2018-06-07T06:13:24.753Z,6.00
2018-06-07T06:15:53.077Z,6.90
2018-06-07T06:18:21.377Z,7.23
2018-06-07T06:20:49.705Z,6.93
2018-06-07T06:23:18.014Z,5.97
2018-06-07T06:25:46.337Z,5.70
2018-06-07T06:28:14.725Z,6.20
2018-06-07T06:30:43.148Z,6.50
2018-06-07T06:33:11.453Z,7.07
2018-06-07T06:35:39.777Z,6.20
2018-06-07T06:38:39.993Z,5.60
2018-06-07T06:41:08.337Z,6.63
2018-06-07T06:43:36.646Z,6.13
2018-06-07T06:46:05.289Z,6.07
2018-06-07T06:48:33.617Z,6.07
2018-06-07T06:51:01.974Z,6.40
2018-06-07T06:53:30.280Z,6.07
2018-06-07T06:55:58.597Z,6.20
2018-06-07T06:58:26.900Z,6.07
2018-06-07T07:00:55.232Z,6.53
2018-06-07T07:03:23.537Z,6.00
2018-06-07T07:05:51.853Z,5.90
2018-06-07T07:08:20.185Z,7.23
2018-06-07T07:10:48.268Z,5.57
2018-06-07T07:13:16.576Z,5.73
2018-06-07T07:15:44.929Z,6.80
2018-06-07T07:18:13.233Z,5.70
2018-06-07T07:20:41.565Z,5.60
2018-06-07T07:23:09.894Z,5.53
2018-06-07T07:25:38.232Z,5.70
2018-06-07T07:28:06.556Z,6.10
2018-06-07T07:30:34.864Z,6.40
2018-06-07T07:33:03.188Z,5.37
2018-06-07T07:35:31.513Z,6.00
2018-06-07T07:37:59.925Z,5.53
2018-06-07T07:40:28.244Z,5.63
2018-06-07T07:42:56.569Z,5.63
2018-06-07T07:45:24.876Z,5.47
2018-06-07T07:47:53.222Z,5.87
2018-06-07T07:50:21.549Z,5.53
2018-06-07T07:52:49.866Z,5.73
2018-06-07T07:55:18.173Z,6.10
2018-06-07T07:57:46.497Z,5.33
2018-06-07T08:00:14.809Z,5.27
2018-06-07T08:02:43.137Z,5.23
2018-06-07T08:05:11.449Z,6.90
2018-06-07T08:07:39.544Z,6.73
2018-06-07T08:10:07.849Z,6.03
2018-06-07T08:12:36.284Z,6.50
2018-06-07T08:15:04.589Z,7.30
2018-06-07T08:17:32.918Z,7.50
2018-06-07T08:20:01.217Z,7.20
2018-06-07T08:22:29.540Z,8.73
2018-06-07T08:24:57.853Z,7.60
2018-06-07T08:27:26.181Z,7.30
2018-06-07T08:29:54.547Z,7.57
2018-06-07T08:32:22.846Z,8.07
2018-06-07T08:34:51.157Z,8.10
2018-06-07T08:37:19.470Z,8.37
2018-06-07T08:39:47.810Z,7.50
2018-06-07T08:42:16.113Z,7.93
2018-06-07T08:44:44.437Z,8.60
2018-06-07T08:47:12.805Z,9.00
2018-06-07T08:49:41.133Z,8.47
2018-06-07T08:52:09.450Z,7.93
2018-06-07T08:54:37.779Z,7.50
2018-06-07T08:57:06.077Z,6.93
2018-06-07T08:59:34.405Z,8.40
2018-06-07T09:02:02.710Z,7.70
2018-06-07T09:04:31.032Z,7.77
2018-06-07T09:06:59.386Z,8.00
2018-06-07T09:09:27.717Z,7.80
2018-06-07T09:11:56.027Z,8.27
2018-06-07T09:14:24.358Z,7.37
2018-06-07T09:16:52.657Z,8.00
2018-06-07T09:19:21.028Z,7.17
2018-06-07T09:21:49.313Z,8.10
2018-06-07T09:24:17.643Z,9.17
2018-06-07T09:26:45.949Z,8.87
2018-06-07T09:29:14.276Z,7.70
2018-06-07T09:31:42.591Z,8.63
2018-06-07T09:34:10.917Z,7.90
2018-06-07T09:36:39.232Z,8.77
2018-06-07T09:39:08.288Z,8.50
2018-06-07T09:41:36.648Z,6.67
2018-06-07T09:44:05.113Z,7.83
2018-06-07T09:46:33.421Z,7.73
2018-06-07T09:49:01.749Z,8.77
2018-06-07T09:51:30.049Z,8.27
2018-06-07T09:53:58.378Z,8.07
2018-06-07T09:56:26.693Z,7.80
2018-06-07T09:58:55.013Z,8.60
2018-06-07T10:01:23.333Z,8.60
2018-06-07T10:03:51.737Z,8.47
2018-06-07T10:06:20.061Z,8.03
2018-06-07T10:08:48.395Z,8.03
2018-06-07T10:11:16.821Z,8.60
2018-06-07T10:13:45.136Z,9.90
2018-06-07T10:16:13.493Z,7.97
2018-06-07T10:18:41.805Z,8.90
2018-06-07T10:21:10.138Z,7.80
2018-06-07T10:23:38.497Z,7.37
2018-06-07T10:26:06.829Z,7.50
2018-06-07T10:28:35.129Z,7.87
2018-06-07T10:31:03.462Z,7.33
2018-06-07T10:33:31.760Z,6.97
2018-06-07T10:36:00.086Z,8.03
2018-06-07T10:38:28.390Z,7.17
2018-06-07T10:40:56.740Z,7.60
2018-06-07T10:43:25.049Z,7.57
2018-06-07T10:45:53.381Z,7.50
2018-06-07T10:48:21.681Z,6.70
2018-06-07T10:50:50.005Z,7.00
2018-06-07T10:53:18.314Z,7.90
2018-06-07T10:55:46.639Z,7.50
2018-06-07T10:58:14.950Z,6.87
2018-06-07T11:00:43.268Z,7.97
2018-06-07T11:03:11.575Z,7.10
2018-06-07T11:05:39.904Z,7.80
2018-06-07T11:08:08.235Z,7.27
2018-06-07T11:10:36.562Z,7.83
2018-06-07T11:13:04.878Z,8.00
2018-06-07T11:15:33.230Z,8.40
2018-06-07T11:18:01.534Z,6.77
2018-06-07T11:20:29.855Z,8.50
2018-06-07T11:22:58.180Z,8.03
2018-06-07T11:25:26.489Z,7.70
2018-06-07T11:27:54.837Z,7.30
2018-06-07T11:30:23.146Z,7.63
2018-06-07T11:32:51.476Z,8.50
2018-06-07T11:35:19.784Z,8.87
2018-06-07T11:37:48.113Z,8.63
2018-06-07T11:40:16.414Z,8.10
2018-06-07T11:42:44.737Z,7.83
2018-06-07T11:45:13.045Z,7.40
2018-06-07T11:47:41.373Z,8.00
2018-06-07T11:50:09.677Z,7.13
2018-06-07T11:52:38.003Z,7.80
2018-06-07T11:55:06.317Z,7.77
2018-06-07T11:57:34.654Z,8.40
2018-06-07T12:00:02.993Z,8.17
2018-06-07T12:02:31.314Z,7.50
2018-06-07T12:04:59.372Z,7.93
2018-06-07T12:07:27.731Z,8.33
2018-06-07T12:09:56.037Z,6.60
2018-06-07T12:12:24.367Z,7.83
2018-06-07T12:14:52.678Z,6.87
2018-06-07T12:17:21.017Z,7.67
2018-06-07T12:19:49.325Z,8.73
2018-06-07T12:22:18.702Z,7.10
2018-06-07T12:24:47.006Z,8.13
2018-06-07T12:27:15.336Z,8.07
2018-06-07T12:29:43.636Z,7.40
2018-06-07T12:32:12.035Z,8.03
2018-06-07T12:34:40.345Z,7.77
2018-06-07T12:37:09.525Z,8.43
2018-06-07T12:39:37.841Z,8.33
2018-06-07T12:42:06.158Z,8.27
2018-06-07T12:44:34.481Z,8.27
2018-06-07T12:47:02.865Z,7.43
2018-06-07T12:49:31.156Z,8.53
2018-06-07T12:51:59.465Z,8.00
2018-06-07T12:54:27.789Z,7.00
2018-06-07T12:56:56.093Z,7.20
2018-06-07T12:59:24.421Z,6.90
2018-06-07T13:01:52.733Z,7.80
2018-06-07T13:04:21.056Z,6.70
2018-06-07T13:06:49.365Z,8.47
2018-06-07T13:09:17.709Z,7.43
2018-06-07T13:11:46.029Z,7.60
2018-06-07T13:14:14.353Z,7.50
2018-06-07T13:16:42.653Z,7.10
2018-06-07T13:19:10.976Z,7.40
2018-06-07T13:21:39.281Z,7.60
2018-06-07T13:24:07.609Z,6.10
2018-06-07T13:26:35.918Z,7.43
2018-06-07T13:29:04.261Z,7.43
2018-06-07T13:31:32.564Z,7.10
2018-06-07T13:34:00.908Z,7.63
2018-06-07T13:36:29.217Z,7.53
2018-06-07T13:38:57.569Z,7.87
2018-06-07T13:41:25.874Z,7.47
2018-06-07T13:43:54.201Z,7.50
2018-06-07T13:46:22.509Z,6.83
2018-06-07T13:48:50.838Z,6.87
2018-06-07T13:51:19.146Z,6.57
2018-06-07T13:53:47.568Z,7.73
2018-06-07T13:56:15.885Z,6.97
2018-06-07T13:58:44.191Z,6.57
2018-06-07T14:01:12.522Z,6.73
2018-06-07T14:03:40.825Z,7.67
2018-06-07T14:06:09.157Z,7.40
2018-06-07T14:08:37.219Z,7.37
2018-06-07T14:11:05.537Z,7.13
2018-06-07T14:13:33.930Z,6.83
2018-06-07T14:16:02.281Z,6.40
2018-06-07T14:18:30.594Z,6.63
2018-06-07T14:20:58.921Z,7.40
2018-06-07T14:23:27.225Z,6.30
2018-06-07T14:25:55.549Z,6.60
2018-06-07T14:28:23.862Z,6.70
2018-06-07T14:30:52.233Z,6.60
2018-06-07T14:33:20.583Z,6.57
2018-06-07T14:35:48.897Z,7.00
2018-06-07T14:38:17.227Z,7.67
2018-06-07T14:40:45.558Z,6.90
2018-06-07T14:43:13.869Z,7.20
2018-06-07T14:45:42.481Z,6.43
2018-06-07T14:48:10.785Z,7.40
2018-06-07T14:50:39.109Z,8.07
2018-06-07T14:53:07.425Z,7.00
2018-06-07T14:55:35.745Z,7.63
2018-06-07T14:58:04.069Z,6.47
2018-06-07T15:00:32.401Z,6.50
2018-06-07T15:03:00.733Z,6.17
2018-06-07T15:05:29.057Z,7.83
2018-06-07T15:07:57.385Z,7.37
2018-06-07T15:10:25.725Z,6.93
2018-06-07T15:12:54.036Z,7.40
2018-06-07T15:15:22.401Z,7.60
2018-06-07T15:17:50.717Z,7.47
2018-06-07T15:20:19.025Z,7.53
2018-06-07T15:22:47.415Z,7.27
2018-06-07T15:25:15.745Z,6.80
2018-06-07T15:27:44.114Z,6.27
2018-06-07T15:30:12.419Z,7.20
2018-06-07T15:32:40.753Z,7.10
2018-06-07T15:35:09.066Z,6.53
2018-06-07T15:37:37.399Z,7.10
2018-06-07T15:40:05.715Z,6.70
2018-06-07T15:42:34.042Z,7.27
2018-06-07T15:45:02.353Z,7.53
2018-06-07T15:47:30.673Z,6.60
2018-06-07T15:49:58.976Z,7.27
2018-06-07T15:52:27.298Z,7.37
2018-06-07T15:54:55.614Z,7.40
2018-06-07T15:57:24.025Z,7.73
2018-06-07T15:59:52.336Z,7.40
2018-06-07T16:02:20.690Z,7.40
2018-06-07T16:04:49.002Z,7.77
2018-06-07T16:07:17.338Z,7.47
2018-06-07T16:09:45.705Z,6.90
2018-06-07T16:12:15.567Z,7.03
2018-06-07T16:14:44.272Z,7.07
2018-06-07T16:17:12.602Z,7.30
2018-06-07T16:19:40.912Z,6.90
2018-06-07T16:22:09.293Z,7.10
2018-06-07T16:24:37.632Z,7.40
2018-06-07T16:27:05.955Z,6.80
2018-06-07T16:29:34.253Z,6.43
2018-06-07T16:32:02.577Z,7.07
2018-06-07T16:34:30.887Z,7.20
2018-06-07T16:36:59.200Z,6.60
2018-06-07T16:39:27.581Z,7.10
2018-06-07T16:41:55.886Z,6.10
2018-06-07T16:44:24.239Z,6.17
2018-06-07T16:46:52.553Z,6.80
2018-06-07T16:49:21.093Z,6.10
2018-06-07T16:51:49.428Z,6.07
2018-06-07T16:54:17.749Z,6.57
2018-06-07T16:56:46.062Z,6.97
2018-06-07T16:59:14.485Z,6.17
2018-06-07T17:01:42.805Z,6.47
2018-06-07T17:04:10.880Z,6.00
2018-06-07T17:06:39.172Z,6.13
2018-06-07T17:09:08.720Z,6.07
2018-06-07T17:11:37.077Z,6.70
2018-06-07T17:14:05.547Z,6.60
2018-06-07T17:16:33.859Z,6.50
2018-06-07T17:19:02.194Z,6.53
2018-06-07T17:21:30.505Z,6.70
2018-06-07T17:23:58.825Z,5.60
2018-06-07T17:26:27.139Z,5.90
2018-06-07T17:28:55.460Z,6.33
2018-06-07T17:31:23.757Z,7.47
2018-06-07T17:33:52.186Z,6.70
2018-06-07T17:36:20.469Z,6.17
2018-06-07T17:38:48.800Z,5.93
2018-06-07T17:41:17.112Z,6.40
2018-06-07T17:43:45.426Z,5.53
2018-06-07T17:46:13.734Z,6.97
2018-06-07T17:48:42.065Z,6.50
2018-06-07T17:51:10.375Z,7.17
2018-06-07T17:53:38.996Z,7.63
2018-06-07T17:56:07.310Z,6.73
2018-06-07T17:58:35.609Z,5.80
2018-06-07T18:01:03.978Z,6.70
2018-06-07T18:03:32.325Z,6.97
2018-06-07T18:06:00.663Z,5.87
2018-06-07T18:08:29.013Z,6.07
2018-06-07T18:10:57.341Z,5.27
2018-06-07T18:13:25.721Z,6.10
2018-06-07T18:15:54.011Z,6.37
2018-06-07T18:18:22.436Z,6.50
2018-06-07T18:20:50.721Z,5.73
2018-06-07T18:23:19.015Z,7.10
2018-06-07T18:25:47.373Z,6.00
2018-06-07T18:28:15.681Z,7.10
2018-06-07T18:30:44.011Z,6.40
2018-06-07T18:33:12.321Z,5.90
2018-06-07T18:35:40.656Z,7.00
2018-06-07T18:38:08.968Z,7.03
2018-06-07T18:40:37.291Z,6.57
2018-06-07T18:43:05.593Z,6.07
2018-06-07T18:45:33.916Z,6.63
2018-06-07T18:48:02.213Z,6.20
2018-06-07T18:50:30.539Z,5.70
2018-06-07T18:52:58.848Z,6.67
2018-06-07T18:55:27.169Z,6.60
2018-06-07T18:57:55.478Z,6.60
2018-06-07T19:00:23.814Z,6.53
2018-06-07T19:02:52.116Z,6.03
2018-06-07T19:05:20.455Z,6.60
2018-06-07T19:07:48.776Z,6.70
2018-06-07T19:10:17.941Z,6.53
2018-06-07T19:12:46.276Z,7.40
2018-06-07T19:15:15.525Z,7.47
2018-06-07T19:17:43.841Z,6.90
2018-06-07T19:20:17.725Z,6.67
2018-06-07T19:22:46.040Z,7.87
2018-06-07T19:25:19.835Z,7.00
2018-06-07T19:27:48.149Z,6.93
2018-06-07T19:30:16.462Z,7.63
2018-06-07T19:32:50.089Z,7.60
2018-06-07T19:35:18.857Z,7.07
2018-06-07T19:37:47.185Z,7.40
2018-06-07T19:40:20.806Z,7.73
2018-06-07T19:42:49.133Z,8.60
2018-06-07T19:45:17.452Z,7.97
2018-06-07T19:47:45.773Z,7.50
2018-06-07T19:50:14.090Z,8.13
2018-06-07T19:52:42.425Z,7.50
2018-06-07T19:55:10.749Z,8.00
2018-06-07T19:57:39.077Z,7.80
2018-06-07T20:00:07.958Z,7.80
2018-06-07T20:02:36.334Z,7.60
2018-06-07T20:05:04.937Z,8.30
2018-06-07T20:07:33.269Z,8.30
2018-06-07T20:10:01.619Z,8.17
2018-06-07T20:12:29.941Z,7.67
2018-06-07T20:14:58.813Z,7.53
2018-06-07T20:17:30.125Z,7.20
2018-06-07T20:19:59.101Z,8.67
2018-06-07T20:22:27.441Z,7.40
2018-06-07T20:24:55.751Z,6.90
2018-06-07T20:27:24.070Z,7.43
2018-06-07T20:29:52.376Z,7.83
2018-06-07T20:32:20.697Z,7.07
2018-06-07T20:34:49.005Z,7.73
2018-06-07T20:37:17.335Z,8.47
2018-06-07T20:39:45.643Z,8.20
2018-06-07T20:42:13.986Z,7.73
2018-06-07T20:44:42.353Z,7.20
2018-06-07T20:47:10.661Z,7.83
2018-06-07T20:49:38.982Z,7.97
2018-06-07T20:52:07.289Z,7.83
2018-06-07T20:54:35.614Z,7.97
2018-06-07T20:57:03.933Z,7.20
2018-06-07T20:59:32.269Z,8.10
2018-06-07T21:02:00.328Z,7.17
2018-06-07T21:04:28.658Z,7.17
2018-06-07T21:06:56.962Z,7.40
2018-06-07T21:09:25.304Z,7.13
2018-06-07T21:11:53.656Z,7.30
2018-06-07T21:14:21.979Z,7.00
2018-06-07T21:16:50.296Z,7.40
2018-06-07T21:19:19.056Z,7.30
2018-06-07T21:21:47.364Z,8.53
2018-06-07T21:24:15.685Z,7.13
2018-06-07T21:26:43.986Z,7.57
2018-06-07T21:29:12.313Z,6.43
2018-06-07T21:31:40.621Z,7.57
2018-06-07T21:34:08.957Z,7.30
2018-06-07T21:36:37.356Z,6.80
2018-06-07T21:39:07.757Z,7.63
2018-06-07T21:41:36.334Z,6.70
2018-06-07T21:44:04.793Z,6.57
2018-06-07T21:46:33.107Z,7.03
2018-06-07T21:49:01.446Z,7.17
2018-06-07T21:51:29.755Z,7.63
2018-06-07T21:53:58.146Z,6.63
2018-06-07T21:56:26.429Z,6.80
2018-06-07T21:58:54.757Z,6.70
2018-06-07T22:01:23.068Z,7.50
2018-06-07T22:03:51.413Z,6.90
2018-06-07T22:06:19.740Z,6.93
2018-06-07T22:08:48.070Z,6.40
2018-06-07T22:11:16.393Z,6.60
2018-06-07T22:13:44.718Z,7.00
2018-06-07T22:16:13.078Z,6.73
2018-06-07T22:18:41.385Z,6.77
2018-06-07T22:21:09.713Z,6.73
2018-06-07T22:23:38.034Z,7.43
2018-06-07T22:26:06.369Z,7.20
2018-06-07T22:28:34.676Z,7.20
2018-06-07T22:31:03.005Z,7.00
2018-06-07T22:33:31.313Z,6.73
2018-06-07T22:35:59.641Z,6.47
2018-06-07T22:38:27.950Z,7.03
2018-06-07T22:40:56.278Z,7.33
2018-06-07T22:43:24.597Z,7.50
2018-06-07T22:45:52.924Z,7.70
2018-06-07T22:48:21.230Z,7.03
2018-06-07T22:50:49.573Z,7.80
2018-06-07T22:53:17.882Z,6.77
2018-06-07T22:55:46.212Z,6.60
2018-06-07T22:58:14.535Z,6.90
2018-06-07T23:00:42.893Z,7.13
2018-06-07T23:03:13.475Z,7.13
2018-06-07T23:05:41.806Z,7.80
2018-06-07T23:08:10.141Z,7.00
2018-06-07T23:10:38.474Z,6.70
2018-06-07T23:13:06.806Z,6.97
2018-06-07T23:15:35.147Z,7.83
2018-06-07T23:18:03.513Z,7.97
2018-06-07T23:20:31.853Z,8.47
2018-06-07T23:23:00.165Z,7.40
2018-06-07T23:25:28.482Z,7.70
2018-06-07T23:27:56.811Z,6.87
2018-06-07T23:30:25.121Z,6.90
2018-06-07T23:32:53.456Z,6.13
2018-06-07T23:35:21.765Z,7.20
2018-06-07T23:37:50.100Z,7.20
2018-06-07T23:40:18.416Z,7.57
2018-06-07T23:42:46.749Z,8.10
2018-06-07T23:45:15.057Z,8.00
2018-06-07T23:47:43.392Z,7.40
2018-06-07T23:50:11.697Z,6.90
2018-06-07T23:52:40.033Z,7.70
2018-06-07T23:55:08.382Z,7.97
2018-06-07T23:57:36.725Z,7.93
